sensor_id;sensor_type;location;lat;lon;timestamp;pressure;altitude;pressure_sealevel;temperature;humidity
33554;BME280;19885;42.208;24.952;2023-09-08T00:01:32;100260.22;;;22.52;94.41
33554;BME280;19885;42.208;24.952;2023-09-08T00:03:57;100261.28;;;22.48;94.40
33554;BME280;19885;42.208;24.952;2023-09-08T00:06:22;100264.94;;;22.44;94.12
33554;BME280;19885;42.208;24.952;2023-09-08T00:08:48;100263.31;;;22.40;94.24
33554;BME280;19885;42.208;24.952;2023-09-08T00:11:13;100256.28;;;22.39;94.84
33554;BME280;19885;42.208;24.952;2023-09-08T00:13:38;100260.56;;;22.43;95.71
33554;BME280;19885;42.208;24.952;2023-09-08T00:16:04;100267.59;;;22.44;94.95
33554;BME280;19885;42.208;24.952;2023-09-08T00:18:30;100264.94;;;22.44;94.82
33554;BME280;19885;42.208;24.952;2023-09-08T00:20:55;100256.06;;;22.45;95.29
33554;BME280;19885;42.208;24.952;2023-09-08T00:23:21;100256.00;;;22.47;96.65
33554;BME280;19885;42.208;24.952;2023-09-08T00:25:46;100255.16;;;22.46;95.94
33554;BME280;19885;42.208;24.952;2023-09-08T00:28:11;100253.31;;;22.48;97.48
33554;BME280;19885;42.208;24.952;2023-09-08T00:30:37;100258.72;;;22.45;95.86
33554;BME280;19885;42.208;24.952;2023-09-08T00:33:02;100254.28;;;22.46;96.31
33554;BME280;19885;42.208;24.952;2023-09-08T00:35:27;100260.47;;;22.46;95.95
33554;BME280;19885;42.208;24.952;2023-09-08T00:37:53;100249.94;;;22.43;95.30
33554;BME280;19885;42.208;24.952;2023-09-08T00:40:18;100253.56;;;22.41;95.53
33554;BME280;19885;42.208;24.952;2023-09-08T00:42:43;100258.00;;;22.40;95.17
33554;BME280;19885;42.208;24.952;2023-09-08T00:45:09;100252.75;;;22.39;94.83
33554;BME280;19885;42.208;24.952;2023-09-08T00:47:34;100252.75;;;22.39;94.45
33554;BME280;19885;42.208;24.952;2023-09-08T00:50:01;100257.50;;;22.29;94.63
33554;BME280;19885;42.208;24.952;2023-09-08T00:52:26;100258.75;;;22.19;95.78
33554;BME280;19885;42.208;24.952;2023-09-08T00:54:56;100258.59;;;22.24;95.75
33554;BME280;19885;42.208;24.952;2023-09-08T00:57:21;100263.06;;;22.22;95.41
33554;BME280;19885;42.208;24.952;2023-09-08T00:59:47;100260.47;;;22.20;95.98
33554;BME280;19885;42.208;24.952;2023-09-08T01:02:12;100256.13;;;22.19;94.78
33554;BME280;19885;42.208;24.952;2023-09-08T01:04:37;100260.28;;;22.00;94.91
33554;BME280;19885;42.208;24.952;2023-09-08T01:07:05;100255.94;;;21.97;95.56
33554;BME280;19885;42.208;24.952;2023-09-08T01:09:31;100246.94;;;22.03;95.71
33554;BME280;19885;42.208;24.952;2023-09-08T01:11:56;100239.06;;;22.00;95.89
33554;BME280;19885;42.208;24.952;2023-09-08T01:14:26;100244.75;;;21.88;96.49
33554;BME280;19885;42.208;24.952;2023-09-08T01:16:52;100248.22;;;21.90;96.11
33554;BME280;19885;42.208;24.952;2023-09-08T01:19:17;100245.69;;;21.87;96.22
33554;BME280;19885;42.208;24.952;2023-09-08T01:24:23;100245.81;;;21.82;96.87
33554;BME280;19885;42.208;24.952;2023-09-08T01:26:53;100231.81;;;21.77;96.86
33554;BME280;19885;42.208;24.952;2023-09-08T01:29:18;100237.28;;;21.73;97.02
33554;BME280;19885;42.208;24.952;2023-09-08T01:31:44;100242.06;;;21.62;96.82
33554;BME280;19885;42.208;24.952;2023-09-08T01:34:11;100232.66;;;21.52;98.00
33554;BME280;19885;42.208;24.952;2023-09-08T01:36:37;100236.19;;;21.24;98.85
33554;BME280;19885;42.208;24.952;2023-09-08T01:39:02;100230.59;;;21.33;98.97
33554;BME280;19885;42.208;24.952;2023-09-08T01:41:28;100224.13;;;21.42;98.60
33554;BME280;19885;42.208;24.952;2023-09-08T01:43:53;100227.75;;;21.40;98.64
33554;BME280;19885;42.208;24.952;2023-09-08T01:46:19;100232.94;;;21.43;98.85
33554;BME280;19885;42.208;24.952;2023-09-08T01:48:45;100221.44;;;21.44;98.63
33554;BME280;19885;42.208;24.952;2023-09-08T01:51:10;100231.13;;;21.45;98.49
33554;BME280;19885;42.208;24.952;2023-09-08T01:53:35;100228.28;;;21.23;98.64
33554;BME280;19885;42.208;24.952;2023-09-08T01:56:01;100232.31;;;21.07;100.00
33554;BME280;19885;42.208;24.952;2023-09-08T01:58:26;100231.75;;;21.25;100.00
33554;BME280;19885;42.208;24.952;2023-09-08T02:00:51;100228.22;;;21.24;99.14
33554;BME280;19885;42.208;24.952;2023-09-08T02:03:17;100236.00;;;21.30;99.65
33554;BME280;19885;42.208;24.952;2023-09-08T02:05:42;100233.31;;;21.32;99.21
33554;BME280;19885;42.208;24.952;2023-09-08T02:08:07;100231.53;;;21.33;99.12
33554;BME280;19885;42.208;24.952;2023-09-08T02:10:33;100237.72;;;21.31;98.77
33554;BME280;19885;42.208;24.952;2023-09-08T02:12:58;100223.59;;;21.31;98.88
33554;BME280;19885;42.208;24.952;2023-09-08T02:15:23;100228.88;;;21.33;98.95
33554;BME280;19885;42.208;24.952;2023-09-08T02:17:50;100221.91;;;21.28;99.25
33554;BME280;19885;42.208;24.952;2023-09-08T02:20:15;100214.22;;;21.21;99.58
33554;BME280;19885;42.208;24.952;2023-09-08T02:22:41;100222.09;;;21.22;99.59
33554;BME280;19885;42.208;24.952;2023-09-08T02:25:07;100223.03;;;21.21;99.32
33554;BME280;19885;42.208;24.952;2023-09-08T02:27:32;100218.56;;;21.23;99.57
33554;BME280;19885;42.208;24.952;2023-09-08T02:29:58;100219.88;;;21.09;100.00
33554;BME280;19885;42.208;24.952;2023-09-08T02:32:23;100215.63;;;21.03;100.00
33554;BME280;19885;42.208;24.952;2023-09-08T02:34:48;100215.50;;;20.77;100.00
33554;BME280;19885;42.208;24.952;2023-09-08T02:37:14;100207.06;;;20.65;100.00
33554;BME280;19885;42.208;24.952;2023-09-08T02:39:40;100209.47;;;20.41;100.00
33554;BME280;19885;42.208;24.952;2023-09-08T02:42:05;100206.84;;;20.40;100.00
33554;BME280;19885;42.208;24.952;2023-09-08T02:44:31;100207.66;;;20.43;100.00
33554;BME280;19885;42.208;24.952;2023-09-08T02:46:57;100206.03;;;20.38;100.00
33554;BME280;19885;42.208;24.952;2023-09-08T02:49:22;100206.28;;;20.29;100.00
33554;BME280;19885;42.208;24.952;2023-09-08T02:51:47;100201.03;;;20.27;100.00
33554;BME280;19885;42.208;24.952;2023-09-08T02:54:12;100202.28;;;20.46;100.00
33554;BME280;19885;42.208;24.952;2023-09-08T02:56:38;100205.22;;;20.67;100.00
33554;BME280;19885;42.208;24.952;2023-09-08T02:59:03;100203.53;;;20.64;100.00
33554;BME280;19885;42.208;24.952;2023-09-08T03:01:28;100201.34;;;20.78;100.00
33554;BME280;19885;42.208;24.952;2023-09-08T03:22:00;100216.19;;;20.21;100.00
33554;BME280;19885;42.208;24.952;2023-09-08T03:24:25;100203.94;;;20.49;100.00
33554;BME280;19885;42.208;24.952;2023-09-08T03:26:50;100198.56;;;20.52;100.00
33554;BME280;19885;42.208;24.952;2023-09-08T03:29:15;100208.25;;;20.53;100.00
33554;BME280;19885;42.208;24.952;2023-09-08T03:31:41;100205.69;;;20.50;100.00
33554;BME280;19885;42.208;24.952;2023-09-08T03:34:06;100204.00;;;20.78;100.00
33554;BME280;19885;42.208;24.952;2023-09-08T03:36:32;100213.81;;;21.05;100.00
33554;BME280;19885;42.208;24.952;2023-09-08T03:39:00;100203.97;;;21.09;100.00
33554;BME280;19885;42.208;24.952;2023-09-08T03:41:26;100207.22;;;21.18;99.66
33554;BME280;19885;42.208;24.952;2023-09-08T03:43:51;100216.88;;;21.19;99.78
33554;BME280;19885;42.208;24.952;2023-09-08T03:46:16;100215.09;;;21.21;99.74
33554;BME280;19885;42.208;24.952;2023-09-08T03:48:42;100223.19;;;21.17;99.66
33554;BME280;19885;42.208;24.952;2023-09-08T03:51:07;100224.97;;;21.15;100.00
33554;BME280;19885;42.208;24.952;2023-09-08T03:53:32;100223.72;;;21.28;100.00
33554;BME280;19885;42.208;24.952;2023-09-08T03:55:57;100221.81;;;21.31;100.00
33554;BME280;19885;42.208;24.952;2023-09-08T03:58:25;100220.56;;;21.15;100.00
33554;BME280;19885;42.208;24.952;2023-09-08T04:00:51;100223.06;;;21.20;100.00
33554;BME280;19885;42.208;24.952;2023-09-08T04:03:16;100222.09;;;21.22;100.00
33554;BME280;19885;42.208;24.952;2023-09-08T04:05:43;100229.28;;;21.19;100.00
33554;BME280;19885;42.208;24.952;2023-09-08T04:08:11;100220.19;;;21.27;100.00
33554;BME280;19885;42.208;24.952;2023-09-08T04:10:36;100227.03;;;21.35;100.00
33554;BME280;19885;42.208;24.952;2023-09-08T04:13:02;100228.22;;;21.24;100.00
33554;BME280;19885;42.208;24.952;2023-09-08T04:15:27;100237.81;;;21.28;100.00
33554;BME280;19885;42.208;24.952;2023-09-08T04:17:52;100225.28;;;21.33;100.00
33554;BME280;19885;42.208;24.952;2023-09-08T04:20:20;100234.97;;;21.07;100.00
33554;BME280;19885;42.208;24.952;2023-09-08T04:22:46;100239.66;;;21.26;100.00
33554;BME280;19885;42.208;24.952;2023-09-08T04:25:12;100242.94;;;21.35;100.00
33554;BME280;19885;42.208;24.952;2023-09-08T04:27:37;100245.16;;;21.20;100.00
33554;BME280;19885;42.208;24.952;2023-09-08T04:30:06;100247.75;;;21.22;100.00
33554;BME280;19885;42.208;24.952;2023-09-08T04:32:31;100242.13;;;21.33;100.00
33554;BME280;19885;42.208;24.952;2023-09-08T04:34:57;100250.91;;;21.35;100.00
33554;BME280;19885;42.208;24.952;2023-09-08T04:37:22;100253.34;;;21.41;100.00
33554;BME280;19885;42.208;24.952;2023-09-08T04:39:47;100249.94;;;21.37;100.00
33554;BME280;19885;42.208;24.952;2023-09-08T04:42:12;100256.50;;;21.24;100.00
33554;BME280;19885;42.208;24.952;2023-09-08T04:44:38;100256.63;;;21.21;100.00
33554;BME280;19885;42.208;24.952;2023-09-08T04:47:04;100256.44;;;21.27;100.00
33554;BME280;19885;42.208;24.952;2023-09-08T04:49:29;100259.00;;;21.30;100.00
33554;BME280;19885;42.208;24.952;2023-09-08T04:51:54;100261.25;;;21.42;100.00
33554;BME280;19885;42.208;24.952;2023-09-08T04:54:20;100256.38;;;21.58;100.00
33554;BME280;19885;42.208;24.952;2023-09-08T04:56:45;100266.56;;;21.70;100.00
33554;BME280;19885;42.208;24.952;2023-09-08T04:59:10;100262.66;;;21.81;100.00
33554;BME280;19885;42.208;24.952;2023-09-08T05:01:35;100260.00;;;21.54;100.00
33554;BME280;19885;42.208;24.952;2023-09-08T05:04:02;100259.72;;;21.35;100.00
33554;BME280;19885;42.208;24.952;2023-09-08T05:06:31;100257.09;;;21.33;100.00
33554;BME280;19885;42.208;24.952;2023-09-08T05:08:56;100261.97;;;21.49;100.00
33554;BME280;19885;42.208;24.952;2023-09-08T05:11:21;100258.59;;;21.42;100.00
33554;BME280;19885;42.208;24.952;2023-09-08T05:13:46;100263.47;;;21.56;100.00
33554;BME280;19885;42.208;24.952;2023-09-08T05:16:12;100266.56;;;21.70;100.00
33554;BME280;19885;42.208;24.952;2023-09-08T05:18:38;100274.19;;;21.80;100.00
33554;BME280;19885;42.208;24.952;2023-09-08T05:21:06;100269.69;;;21.84;100.00
33554;BME280;19885;42.208;24.952;2023-09-08T05:23:31;100276.59;;;21.89;100.00
33554;BME280;19885;42.208;24.952;2023-09-08T05:25:57;100273.25;;;21.83;100.00
33554;BME280;19885;42.208;24.952;2023-09-08T05:28:22;100270.25;;;21.93;100.00
33554;BME280;19885;42.208;24.952;2023-09-08T05:30:53;100271.13;;;21.94;100.00
33554;BME280;19885;42.208;24.952;2023-09-08T05:33:20;100275.53;;;21.66;100.00
33554;BME280;19885;42.208;24.952;2023-09-08T05:35:46;100282.19;;;21.79;100.00
33554;BME280;19885;42.208;24.952;2023-09-08T05:38:12;100285.22;;;21.96;100.00
33554;BME280;19885;42.208;24.952;2023-09-08T05:40:37;100284.41;;;21.94;100.00
33554;BME280;19885;42.208;24.952;2023-09-08T05:43:03;100293.94;;;21.43;100.00
33554;BME280;19885;42.208;24.952;2023-09-08T05:45:28;100289.94;;;21.29;100.00
33554;BME280;19885;42.208;24.952;2023-09-08T05:47:56;100289.88;;;21.88;100.00
33554;BME280;19885;42.208;24.952;2023-09-08T05:50:21;100293.22;;;21.67;100.00
33554;BME280;19885;42.208;24.952;2023-09-08T05:52:49;100295.56;;;21.76;100.00
33554;BME280;19885;42.208;24.952;2023-09-08T05:55:14;100298.06;;;21.53;100.00
33554;BME280;19885;42.208;24.952;2023-09-08T05:57:39;100290.63;;;21.36;100.00
33554;BME280;19885;42.208;24.952;2023-09-08T06:00:06;100292.25;;;21.97;100.00
33554;BME280;19885;42.208;24.952;2023-09-08T06:02:31;100296.44;;;22.30;100.00
33554;BME280;19885;42.208;24.952;2023-09-08T06:04:57;100283.66;;;22.41;99.29
33554;BME280;19885;42.208;24.952;2023-09-08T06:07:22;100296.13;;;22.39;98.52
33554;BME280;19885;42.208;24.952;2023-09-08T06:09:50;100296.78;;;22.46;98.08
33554;BME280;19885;42.208;24.952;2023-09-08T06:12:15;100300.34;;;22.71;96.71
33554;BME280;19885;42.208;24.952;2023-09-08T06:14:40;100293.75;;;22.81;96.57
33554;BME280;19885;42.208;24.952;2023-09-08T06:17:06;100293.41;;;22.90;95.33
33554;BME280;19885;42.208;24.952;2023-09-08T06:19:31;100297.19;;;22.85;97.19
33554;BME280;19885;42.208;24.952;2023-09-08T06:21:56;100298.84;;;22.62;97.37
33554;BME280;19885;42.208;24.952;2023-09-08T06:24:21;100301.69;;;22.83;95.79
33554;BME280;19885;42.208;24.952;2023-09-08T06:26:47;100309.28;;;22.42;97.38
33554;BME280;19885;42.208;24.952;2023-09-08T06:29:12;100314.44;;;22.47;96.52
33554;BME280;19885;42.208;24.952;2023-09-08T06:31:37;100310.16;;;22.69;95.13
33554;BME280;19885;42.208;24.952;2023-09-08T06:34:03;100312.75;;;22.95;93.09
33554;BME280;19885;42.208;24.952;2023-09-08T06:36:28;100318.81;;;22.99;93.42
33554;BME280;19885;42.208;24.952;2023-09-08T06:38:53;100314.34;;;22.99;93.89
33554;BME280;19885;42.208;24.952;2023-09-08T06:41:19;100314.13;;;23.28;92.11
33554;BME280;19885;42.208;24.952;2023-09-08T06:43:44;100319.13;;;23.14;91.70
33554;BME280;19885;42.208;24.952;2023-09-08T06:46:09;100312.69;;;23.20;91.63
33554;BME280;19885;42.208;24.952;2023-09-08T06:48:35;100323.13;;;23.26;92.05
33554;BME280;19885;42.208;24.952;2023-09-08T06:51:03;100324.59;;;23.33;90.04
33554;BME280;19885;42.208;24.952;2023-09-08T06:53:28;100326.34;;;23.11;88.80
33554;BME280;19885;42.208;24.952;2023-09-08T06:55:56;100322.06;;;23.30;81.59
33554;BME280;19885;42.208;24.952;2023-09-08T06:58:21;100323.53;;;23.38;78.67
33554;BME280;19885;42.208;24.952;2023-09-08T07:00:46;100318.75;;;23.70;81.10
33554;BME280;19885;42.208;24.952;2023-09-08T07:03:12;100320.91;;;23.60;82.51
33554;BME280;19885;42.208;24.952;2023-09-08T07:05:42;100310.97;;;23.65;81.52
33554;BME280;19885;42.208;24.952;2023-09-08T07:08:08;100313.28;;;23.51;78.37
33554;BME280;19885;42.208;24.952;2023-09-08T07:10:33;100324.19;;;23.45;82.34
33554;BME280;19885;42.208;24.952;2023-09-08T07:12:58;100320.25;;;23.55;81.62
33554;BME280;19885;42.208;24.952;2023-09-08T07:15:23;100320.59;;;23.46;81.67
33554;BME280;19885;42.208;24.952;2023-09-08T07:17:49;100325.84;;;23.48;80.18
33554;BME280;19885;42.208;24.952;2023-09-08T07:20:14;100324.34;;;23.64;78.74
